createdAt,value
2022-11-18T00:03:40.039Z,65139.00
2022-11-18T00:09:31.567Z,65162.84
2022-11-18T00:14:54.417Z,65245.34
2022-11-18T00:20:10.179Z,65171.44
2022-11-18T00:31:12.001Z,65276.00
2022-11-18T00:36:42.023Z,65259.63
2022-11-18T00:42:33.620Z,65248.34
2022-11-18T00:49:03.136Z,65294.19
2022-11-18T00:54:40.113Z,65330.50
2022-11-18T01:00:23.554Z,65455.00
2022-11-18T01:05:58.665Z,65369.25
2022-11-18T01:17:48.821Z,65320.28
2022-11-18T01:23:57.301Z,65247.38
2022-11-18T01:29:43.110Z,65357.00
2022-11-18T01:35:35.388Z,65314.94
2022-11-18T01:41:04.386Z,65331.47
2022-11-18T01:46:38.742Z,65337.84
2022-11-18T01:58:01.736Z,65339.97
2022-11-18T02:03:14.250Z,65210.03
2022-11-18T02:15:25.613Z,65250.03
2022-11-18T02:21:10.914Z,65370.84
2022-11-18T02:27:14.132Z,65340.50
2022-11-18T02:39:12.226Z,65300.06
2022-11-18T02:50:35.347Z,65322.84
2022-11-18T02:56:13.074Z,65405.03
2022-11-18T03:02:15.645Z,65349.22
2022-11-18T03:08:13.153Z,65379.47
2022-11-18T03:14:27.523Z,65350.72
2022-11-18T03:20:38.105Z,65379.03
2022-11-18T03:26:47.080Z,65222.91
2022-11-18T03:32:37.076Z,65267.16
2022-11-18T03:38:16.793Z,65152.22
2022-11-18T03:44:14.049Z,65229.28
2022-11-18T03:50:13.834Z,65177.09
2022-11-18T03:55:43.745Z,65288.88
2022-11-18T04:01:12.064Z,65281.97
2022-11-18T04:06:54.411Z,65315.47
2022-11-18T04:12:47.721Z,65186.22
2022-11-18T04:18:44.326Z,65305.38
2022-11-18T04:24:30.423Z,65330.41
2022-11-18T04:42:19.412Z,65359.69
2022-11-18T04:48:24.939Z,65237.72
2022-11-18T04:53:59.147Z,65232.47
2022-11-18T05:00:05.669Z,65229.81
2022-11-18T05:11:46.311Z,65354.69
2022-11-18T05:18:13.712Z,65261.31
2022-11-18T05:24:17.983Z,65418.25
2022-11-18T05:29:53.209Z,65355.41
2022-11-18T05:43:12.838Z,65327.75
2022-11-18T05:49:34.105Z,65281.66
2022-11-18T05:56:00.928Z,65243.22
2022-11-18T06:02:10.953Z,65247.28
2022-11-18T06:08:14.019Z,65268.56
2022-11-18T06:13:58.281Z,65215.56
2022-11-18T06:19:12.279Z,65129.88
2022-11-18T06:24:34.807Z,65241.31
2022-11-18T06:30:21.337Z,65146.03
2022-11-18T06:36:51.437Z,65237.72
2022-11-18T07:04:29.745Z,65329.44
2022-11-18T07:10:14.907Z,65333.59
2022-11-18T07:15:36.967Z,65329.88
2022-11-18T07:27:21.905Z,65295.59
2022-11-18T07:32:52.117Z,65261.75
2022-11-18T07:38:06.383Z,65216.53
2022-11-18T07:43:15.872Z,65296.34
2022-11-18T07:48:23.340Z,65372.56
2022-11-18T07:53:32.355Z,65378.41
2022-11-18T07:58:41.550Z,65312.38
2022-11-18T08:03:49.752Z,65350.19
2022-11-18T08:08:54.243Z,65347.31
2022-11-18T08:13:59.963Z,65341.13
2022-11-18T08:19:04.130Z,65358.63
2022-11-18T08:24:10.865Z,65367.13
2022-11-18T08:29:21.833Z,65349.66
2022-11-18T08:34:29.138Z,65417.72
2022-11-18T08:39:33.791Z,65290.03
2022-11-18T08:44:39.527Z,65370.84
2022-11-18T08:49:44.200Z,65389.16
2022-11-18T08:54:48.854Z,65376.81
2022-11-18T09:00:18.480Z,65328.81
2022-11-18T09:05:28.592Z,65277.72
2022-11-18T09:30:18.299Z,65344.75
2022-11-18T09:36:31.399Z,65261.97
2022-11-18T09:43:03.420Z,65115.22
2022-11-18T09:48:50.969Z,65114.78
2022-11-18T09:54:57.651Z,65151.13
2022-11-18T10:00:36.953Z,65143.16
2022-11-18T10:06:17.963Z,65159.97
2022-11-18T10:11:57.217Z,65202.16
2022-11-18T10:17:41.817Z,65202.59
2022-11-18T10:23:19.603Z,65122.00
2022-11-18T10:28:42.723Z,65121.59
2022-11-18T10:34:04.003Z,65144.34
2022-11-18T10:40:31.090Z,65195.59
2022-11-18T10:46:09.538Z,65135.72
2022-11-18T10:51:25.110Z,65111.28
2022-11-18T10:56:48.847Z,65112.44
2022-11-18T11:02:16.536Z,65102.25
2022-11-18T11:07:27.787Z,65119.47
2022-11-18T11:12:34.795Z,65106.50
2022-11-18T11:17:47.288Z,65077.81
2022-11-18T11:22:52.027Z,65180.28
2022-11-18T11:28:17.172Z,65103.75
2022-11-18T11:33:42.317Z,65042.75
2022-11-18T11:39:04.827Z,65055.31
2022-11-18T11:44:31.568Z,65176.97
2022-11-18T11:49:51.290Z,65144.22
2022-11-18T11:55:08.263Z,65176.75
2022-11-18T12:00:16.201Z,65035.84
2022-11-18T12:05:27.911Z,65025.75
2022-11-18T12:10:44.356Z,65010.91
2022-11-18T12:16:05.435Z,64997.53
2022-11-18T12:21:50.020Z,65022.59
2022-11-18T12:26:56.579Z,65045.31
2022-11-18T12:32:05.130Z,65012.59
2022-11-18T12:37:48.351Z,65006.66
2022-11-18T12:43:10.695Z,65069.09
2022-11-18T12:48:40.131Z,65066.13
2022-11-18T12:53:47.703Z,65139.44
2022-11-18T12:58:53.515Z,65064.53
2022-11-18T13:04:08.944Z,65038.28
2022-11-18T13:09:18.996Z,65047.53
2022-11-18T13:14:46.591Z,65019.94
2022-11-18T13:19:58.976Z,65036.06
2022-11-18T13:25:23.229Z,65076.13
2022-11-18T13:30:32.114Z,65045.63
2022-11-18T13:35:42.234Z,65102.78
2022-11-18T13:41:11.903Z,65085.78
2022-11-18T13:46:24.181Z,65128.81
2022-11-18T13:51:31.990Z,65143.16
2022-11-18T13:56:41.465Z,65099.59
2022-11-18T14:01:48.627Z,65143.16
2022-11-18T14:06:56.447Z,65240.56
2022-11-18T14:12:24.082Z,65211.75
2022-11-18T14:17:33.130Z,65035.53
2022-11-18T14:22:45.083Z,65062.94
2022-11-18T14:28:14.426Z,65044.44
2022-11-18T14:33:25.955Z,65057.75
2022-11-18T14:39:04.033Z,65047.44
2022-11-18T14:44:25.285Z,65008.13
2022-11-18T14:49:34.128Z,65011.34
2022-11-18T14:54:41.551Z,65011.97
2022-11-18T14:59:47.240Z,65088.56
2022-11-18T15:04:53.898Z,65071.44
2022-11-18T15:09:59.161Z,65032.13
2022-11-18T15:15:22.417Z,65033.19
2022-11-18T15:20:27.935Z,65047.22
2022-11-18T15:25:31.935Z,65038.28
2022-11-18T15:30:39.380Z,64968.31
2022-11-18T15:35:45.360Z,64987.22
2022-11-18T15:40:49.815Z,65038.50
2022-11-18T15:45:58.722Z,64998.81
2022-11-18T15:51:10.461Z,64997.63
2022-11-18T15:56:17.895Z,65052.31
2022-11-18T16:01:23.554Z,65014.00
2022-11-18T16:06:29.676Z,64978.63
2022-11-18T16:11:54.635Z,65016.22
2022-11-18T16:16:59.342Z,65001.78
2022-11-18T16:22:05.365Z,65013.03
2022-11-18T16:27:10.064Z,65028.31
2022-11-18T16:32:15.541Z,65040.00
2022-11-18T16:37:22.583Z,64976.41
2022-11-18T16:42:27.199Z,65023.13
2022-11-18T16:47:34.460Z,65023.13
2022-11-18T16:52:40.954Z,65064.00
2022-11-18T16:57:45.246Z,65099.19
2022-11-18T17:02:50.392Z,65101.59
2022-11-18T17:07:56.204Z,65002.84
2022-11-18T17:13:03.255Z,65019.81
2022-11-18T17:18:07.939Z,65008.88
2022-11-18T17:23:13.910Z,65022.78
2022-11-18T17:28:18.360Z,65079.94
2022-11-18T17:33:22.771Z,65009.84
2022-11-18T17:38:31.672Z,65042.88
2022-11-18T17:43:36.378Z,64967.38
2022-11-18T17:48:40.499Z,65052.53
2022-11-18T17:53:46.218Z,65132.53
2022-11-18T17:58:51.328Z,65129.47
2022-11-18T18:03:55.770Z,65063.47
2022-11-18T18:09:01.559Z,65075.69
2022-11-18T18:14:15.742Z,65046.47
2022-11-18T18:19:21.599Z,64997.75
2022-11-18T18:24:27.393Z,64986.47
2022-11-18T18:29:32.012Z,64996.69
2022-11-18T18:34:37.978Z,64967.38
2022-11-18T18:39:46.924Z,64968.97
2022-11-18T18:45:11.633Z,64937.00
2022-11-18T18:50:17.064Z,64973.00
2022-11-18T18:55:49.162Z,64917.50
2022-11-18T19:01:08.259Z,64917.91
2022-11-18T19:06:49.140Z,64933.22
2022-11-18T19:12:05.931Z,64914.31
2022-11-18T19:17:12.427Z,64934.91
2022-11-18T19:22:18.025Z,64924.41
2022-11-18T19:27:24.479Z,64954.22
2022-11-18T19:32:29.117Z,64976.41
2022-11-18T19:37:33.767Z,64987.53
2022-11-18T19:42:40.949Z,64946.81
2022-11-18T19:47:45.939Z,64940.63
2022-11-18T19:52:50.281Z,64920.78
2022-11-18T19:57:55.896Z,64925.59
2022-11-18T20:02:59.747Z,64956.66
2022-11-18T20:08:04.077Z,64879.75
2022-11-18T20:13:09.991Z,64896.31
2022-11-18T20:18:17.269Z,64884.63
2022-11-18T20:23:21.978Z,64893.63
2022-11-18T20:28:27.584Z,64883.56
2022-11-18T20:33:35.227Z,64837.53
2022-11-18T20:38:40.076Z,64828.53
2022-11-18T20:43:48.834Z,64867.31
2022-11-18T20:48:54.308Z,64900.53
2022-11-18T20:54:00.185Z,64847.50
2022-11-18T20:59:06.994Z,64825.34
2022-11-18T21:04:12.358Z,64928.84
2022-11-18T21:09:17.991Z,64930.88
2022-11-18T21:14:25.847Z,65008.25
2022-11-18T21:19:33.089Z,64896.69
2022-11-18T21:24:38.037Z,64842.72
2022-11-18T21:29:46.475Z,64795.88
2022-11-18T21:34:50.992Z,64788.03
2022-11-18T21:39:55.422Z,64793.34
2022-11-18T21:45:01.334Z,64780.31
2022-11-18T21:50:09.385Z,64782.03
2022-11-18T21:55:13.871Z,64771.09
2022-11-18T22:00:22.624Z,64794.38
2022-11-18T22:05:28.386Z,64798.13
2022-11-18T22:10:32.773Z,64900.31
2022-11-18T22:15:38.944Z,64908.38
2022-11-18T22:20:43.645Z,64810.81
2022-11-18T22:25:56.763Z,64795.78
2022-11-18T22:31:05.274Z,64733.72
2022-11-18T22:36:13.089Z,64796.53
2022-11-18T22:41:42.992Z,64799.28
2022-11-18T22:46:50.527Z,64841.16
2022-11-18T22:51:55.404Z,64749.38
2022-11-18T22:57:02.812Z,64814.66
2022-11-18T23:02:08.950Z,64767.50
2022-11-18T23:07:16.025Z,64792.16
2022-11-18T23:12:43.583Z,64735.19
2022-11-18T23:17:53.858Z,64777.66
2022-11-18T23:23:03.495Z,64779.66
2022-11-18T23:28:08.266Z,64745.13
2022-11-18T23:33:17.698Z,64710.19
2022-11-18T23:38:22.668Z,64791.75
2022-11-18T23:43:28.472Z,64887.16
2022-11-18T23:48:37.851Z,64911.25
2022-11-18T23:53:43.551Z,64808.28
2022-11-18T23:58:52.347Z,64981.72
